Time;durP1;ratioP1;P1;durP2;ratioP2;P2;SDS_P1;SDS_P2;PMS_P1;PMS_P2;Temp;Humidity;BMP_temperature;BMP_pressure;BME280_temperature;BME280_humidity;BME280_pressure;Samples;Min_cycle;Max_cycle;Signal;HPM_P1;HPM_P2
2022/01/17 00:01:48;455860.00;1.52;785.86;95281.00;0.32;165.43;;;;;9.00;1.00;;;;;;2247373;61;2005;-88
2022/01/17 00:04:15;515378.00;1.72;888.30;110492.00;0.37;191.68;;;;;8.80;1.00;;;;;;2248658;61;1465;-88
2022/01/17 00:06:43;658823.00;2.20;1135.90;88342.00;0.29;153.44;;;;;8.50;1.00;;;;;;2248666;61;1135;-88
2022/01/17 00:09:12;416300.00;1.39;717.83;100212.00;0.33;173.94;;;;;7.90;1.00;;;;;;2248792;61;1087;-88
2022/01/17 00:11:44;477138.00;1.59;822.47;100220.00;0.33;173.95;;;;;7.80;1.00;;;;;;2248703;61;1056;-89
2022/01/17 00:14:15;733869.00;2.45;1266.02;94387.00;0.31;163.88;;;;;7.70;1.00;;;;;;2248645;61;1299;-88
2022/01/17 00:16:47;449737.00;1.50;775.33;92449.00;0.31;160.54;;;;;7.80;1.00;;;;;;2248737;61;1571;-88
2022/01/17 00:21:59;691146.00;2.30;1191.89;81779.00;0.27;142.11;;;;;7.80;1.00;;;;;;2248737;61;2011;-88
2022/01/17 00:24:26;411502.00;1.37;709.58;96431.00;0.32;167.41;;;;;7.80;1.00;;;;;;2248706;61;1138;-88
2022/01/17 00:26:54;911074.00;3.04;1575.58;183419.00;0.61;317.38;;;;;7.10;1.00;;;;;;2248471;61;1151;-87
2022/01/17 00:29:21;596157.00;1.99;1027.58;78714.00;0.26;136.82;;;;;7.10;1.00;;;;;;2248740;61;924;-89
2022/01/17 00:31:48;580325.00;1.93;1000.26;99693.00;0.33;173.04;;;;;7.30;1.00;;;;;;2248629;61;1048;-88
2022/01/17 00:34:15;716101.00;2.39;1235.17;104277.00;0.35;180.95;;;;;7.10;1.00;;;;;;2248606;61;1472;-88
2022/01/17 00:36:42;503222.00;1.68;867.37;103869.00;0.35;180.25;;;;;7.50;1.00;;;;;;2248640;61;1011;-88
2022/01/17 00:39:09;431765.00;1.44;744.42;95883.00;0.32;166.46;;;;;7.90;1.00;;;;;;2248715;61;980;-88
2022/01/17 00:41:36;595111.00;1.98;1025.78;99321.00;0.33;172.40;;;;;7.90;1.00;;;;;;2248645;61;1907;-87
2022/01/17 00:44:05;668348.00;2.23;1152.39;81505.00;0.27;141.64;;;;;7.40;1.00;;;;;;2248533;61;1512;-89
2022/01/17 00:46:32;781566.00;2.61;1348.99;107076.00;0.36;185.78;;;;;7.60;1.00;;;;;;2248483;61;1137;-88
2022/01/17 00:48:59;591314.00;1.97;1019.22;75821.00;0.25;131.82;;;;;7.40;1.00;;;;;;2248650;61;1120;-89
2022/01/17 00:51:26;117491976.00;391.64;65698292.00;97017.00;0.32;168.42;;;;;7.00;1.00;;;;;;2248580;61;1938;-88
2022/01/17 00:53:53;428731.00;1.43;739.20;84614.00;0.28;147.01;;;;;6.80;1.00;;;;;;2248562;61;1367;-89
2022/01/17 00:56:22;735700.00;2.45;1269.20;122979.00;0.41;213.22;;;;;6.60;1.00;;;;;;2248638;61;1065;-88
2022/01/17 00:58:50;569272.00;1.90;981.19;99796.00;0.33;173.22;;;;;6.50;1.00;;;;;;2248566;61;1699;-88
2022/01/17 01:01:19;470427.00;1.57;810.92;94629.00;0.32;164.30;;;;;6.70;1.00;;;;;;2248598;61;1919;-88
2022/01/17 01:03:46;696069.00;2.32;1200.42;82854.00;0.28;143.97;;;;;6.90;1.00;;;;;;2248233;61;1305;-88
2022/01/17 01:06:12;496680.00;1.66;856.11;99655.00;0.33;172.98;;;;;7.20;1.00;;;;;;2248600;61;1094;-90
2022/01/17 01:08:39;622694.00;2.08;1073.42;102136.00;0.34;177.26;;;;;7.00;1.00;;;;;;2248575;61;985;-88
2022/01/17 01:11:07;755509.00;2.52;1303.64;91856.00;0.31;159.51;;;;;7.10;1.00;;;;;;2248532;61;1148;-89
2022/01/17 01:13:34;668704.00;2.23;1153.01;97797.00;0.33;169.77;;;;;7.30;1.00;;;;;;2248430;61;1280;-89
2022/01/17 01:16:23;541873.00;1.81;933.95;91678.00;0.31;159.21;;;;;7.60;1.00;;;;;;2248537;61;1085;-89
2022/01/17 01:19:27;778121.00;2.59;1342.99;14089.00;0.05;25.03;;;;;7.50;1.00;;;;;;2248568;61;1118;-89
2022/01/17 01:30:24;363679.00;1.21;627.37;0.00;0.00;0.62;;;;;7.30;1.00;;;;;;2248549;61;984;-89
2022/01/17 01:32:54;391554.00;1.31;675.29;0.00;0.00;0.62;;;;;7.10;1.00;;;;;;2247126;61;1719;-89
2022/01/17 01:35:33;298560.00;1.00;515.44;0.00;0.00;0.62;;;;;7.20;1.00;;;;;;2248542;61;1034;-89
2022/01/17 01:38:01;242315.00;0.81;418.73;0.00;0.00;0.62;;;;;7.40;1.00;;;;;;2248390;61;1258;-89
2022/01/17 01:40:28;551325.00;1.84;950.24;94705.00;0.32;164.43;;;;;7.20;1.00;;;;;;2248274;61;1924;-89
2022/01/17 01:42:55;648490.00;2.16;1118.02;99201.00;0.33;172.19;;;;;6.40;1.00;;;;;;2248419;61;1385;-88
2022/01/17 01:45:23;270790.00;0.90;467.70;0.00;0.00;0.62;;;;;6.90;1.00;;;;;;2248491;61;1092;-89
2022/01/17 01:47:50;371120.00;1.24;640.16;0.00;0.00;0.62;;;;;7.30;1.00;;;;;;2248501;61;967;-89
2022/01/17 01:50:18;330165.00;1.10;569.77;14847.00;0.05;26.35;;;;;7.60;1.00;;;;;;2248483;61;1115;-88
2022/01/17 01:52:48;452353.00;1.51;779.83;0.00;0.00;0.62;;;;;7.50;1.00;;;;;;2248286;61;1384;-89
2022/01/17 01:55:17;218978.00;0.73;378.59;0.00;0.00;0.62;;;;;7.60;1.00;;;;;;2248420;61;1573;-89
2022/01/17 01:57:45;262388.00;0.87;453.25;0.00;0.00;0.62;;;;;7.90;1.00;;;;;;2248302;61;1558;-89
2022/01/17 02:00:14;431313.00;1.44;743.64;6428.00;0.02;11.76;;;;;8.10;1.00;;;;;;2248493;61;1213;-89
2022/01/17 02:02:42;246102.00;0.82;425.25;0.00;0.00;0.62;;;;;8.40;1.00;;;;;;2248266;61;1925;-88
2022/01/17 02:05:09;519320.00;1.73;895.09;0.00;0.00;0.62;;;;;8.20;1.00;;;;;;2248400;61;960;-87
2022/01/17 02:07:38;253756.00;0.85;438.41;0.00;0.00;0.62;;;;;8.10;1.00;;;;;;2248320;61;892;-88
2022/01/17 02:10:08;482057.00;1.61;830.94;0.00;0.00;0.62;;;;;8.20;1.00;;;;;;2248248;61;1707;-88
2022/01/17 02:12:35;322356.00;1.07;556.35;0.00;0.00;0.62;;;;;8.20;1.00;;;;;;2248319;61;1301;-87
2022/01/17 02:15:03;241832.00;0.81;417.90;0.00;0.00;0.62;;;;;8.40;1.00;;;;;;2248394;61;1073;-87
2022/01/17 02:17:33;339609.00;1.13;586.00;0.00;0.00;0.62;;;;;8.30;1.00;;;;;;2248396;61;1029;-87
2022/01/17 02:20:07;340914.00;1.14;588.24;0.00;0.00;0.62;;;;;8.20;1.00;;;;;;2248310;61;1629;-87
2022/01/17 02:22:34;221168.00;0.74;382.35;0.00;0.00;0.62;;;;;8.50;1.00;;;;;;2248330;61;1990;-88
2022/01/17 02:25:02;311484.00;1.04;537.66;0.00;0.00;0.62;;;;;8.60;1.00;;;;;;2248400;61;1072;-87
2022/01/17 02:27:29;218410.00;0.73;377.61;0.00;0.00;0.62;;;;;9.00;1.00;;;;;;2248269;61;1113;-88
2022/01/17 02:29:56;494027.00;1.65;851.54;0.00;0.00;0.62;;;;;8.90;1.00;;;;;;2248216;61;1057;-87
2022/01/17 02:32:22;309562.00;1.03;534.36;0.00;0.00;0.62;;;;;8.90;1.00;;;;;;2248305;61;1262;-87
2022/01/17 02:34:49;548393.00;1.83;945.19;87862.00;0.29;152.62;;;;;8.60;1.00;;;;;;2248361;61;1045;-87
2022/01/17 02:37:18;340403.00;1.13;587.37;43120.00;0.14;75.29;;;;;8.50;1.00;;;;;;2248277;61;1079;-88
2022/01/17 02:39:45;283391.00;0.94;489.37;0.00;0.00;0.62;;;;;8.50;1.00;;;;;;2248332;61;1038;-87
2022/01/17 02:42:16;209483.00;0.70;362.25;0.00;0.00;0.62;;;;;8.80;1.00;;;;;;2248211;61;1920;-86
2022/01/17 02:44:45;279879.00;0.93;483.33;0.00;0.00;0.62;;;;;8.90;1.00;;;;;;2244326;61;1559;-87
2022/01/17 02:47:17;275972.00;0.92;476.61;0.00;0.00;0.62;;;;;8.60;1.00;;;;;;2244270;61;1116;-87
2022/01/17 02:49:44;206677.00;0.69;357.42;0.00;0.00;0.62;;;;;8.20;1.00;;;;;;2244060;61;1070;-87
2022/01/17 02:52:11;490885.00;1.64;846.13;0.00;0.00;0.62;;;;;7.80;1.00;;;;;;2244202;61;1578;-88
2022/01/17 02:54:39;273295.00;0.91;472.01;0.00;0.00;0.62;;;;;7.50;1.00;;;;;;2244328;61;1101;-87
2022/01/17 02:57:08;293956.00;0.98;507.53;0.00;0.00;0.62;;;;;7.30;1.00;;;;;;2244343;61;1046;-87
2022/01/17 02:59:35;302591.00;1.01;522.37;0.00;0.00;0.62;;;;;7.20;1.00;;;;;;2244358;61;1087;-87
2022/01/17 03:02:03;446586.00;1.49;769.91;0.00;0.00;0.62;;;;;7.60;1.00;;;;;;2244108;61;1916;-87
2022/01/17 03:04:31;296598.00;0.99;512.07;0.00;0.00;0.62;;;;;7.90;1.00;;;;;;2244331;61;1183;-87
2022/01/17 03:06:58;226901.00;0.76;392.22;0.00;0.00;0.62;;;;;8.10;1.00;;;;;;2244209;61;1084;-88
2022/01/17 03:09:26;473083.00;1.58;815.49;0.00;0.00;0.62;;;;;8.10;1.00;;;;;;2244203;61;1635;-87
2022/01/17 03:11:55;467551.00;1.56;805.98;46168.00;0.15;80.56;;;;;8.20;1.00;;;;;;2244247;61;1065;-87
2022/01/17 03:14:21;412386.00;1.37;711.10;0.00;0.00;0.62;;;;;8.00;1.00;;;;;;2244214;61;976;-86
2022/01/17 03:16:49;408780.00;1.36;704.90;31176.00;0.10;54.62;;;;;8.10;1.00;;;;;;2244257;61;1733;-87
2022/01/17 03:19:16;233051.00;0.78;402.80;0.00;0.00;0.62;;;;;8.00;1.00;;;;;;2244259;61;1163;-87
2022/01/17 03:21:43;203779.00;0.68;352.43;0.00;0.00;0.62;;;;;7.80;1.00;;;;;;2244259;61;1912;-86
2022/01/17 03:24:10;353551.00;1.18;609.96;0.00;0.00;0.62;;;;;7.40;1.00;;;;;;2244225;61;1409;-87
2022/01/17 03:26:37;257111.00;0.86;444.18;0.00;0.00;0.62;;;;;7.20;1.00;;;;;;2244253;61;1057;-88
2022/01/17 03:29:06;306454.00;1.02;529.01;0.00;0.00;0.62;;;;;7.20;1.00;;;;;;2244255;61;1027;-87
2022/01/17 03:31:33;260866.00;0.87;450.64;0.00;0.00;0.62;;;;;7.40;1.00;;;;;;2244041;61;1055;-87
2022/01/17 03:34:00;421802.00;1.41;727.29;0.00;0.00;0.62;;;;;7.30;1.00;;;;;;2244135;61;1315;-87
2022/01/17 03:36:27;343659.00;1.15;592.96;12057.00;0.04;21.51;;;;;7.80;1.00;;;;;;2244136;61;1445;-87
2022/01/17 03:38:55;215139.00;0.72;371.98;0.00;0.00;0.62;;;;;7.90;1.00;;;;;;2244099;61;1148;-87
2022/01/17 03:41:23;435171.00;1.45;750.28;0.00;0.00;0.62;;;;;7.70;1.00;;;;;;2244040;61;1928;-85
2022/01/17 03:43:50;380601.00;1.27;656.46;0.00;0.00;0.62;;;;;7.60;1.00;;;;;;2244190;61;1266;-86
2022/01/17 03:46:18;321941.00;1.07;555.63;0.00;0.00;0.62;;;;;7.50;1.00;;;;;;2244144;61;1113;-87
2022/01/17 03:48:45;238567.00;0.80;412.29;0.00;0.00;0.62;;;;;7.60;1.00;;;;;;2244175;61;1089;-86
2022/01/17 03:51:12;303708.00;1.01;524.29;0.00;0.00;0.62;;;;;7.30;1.00;;;;;;2244086;61;1148;-88
2022/01/17 03:53:39;470112.00;1.57;810.38;0.00;0.00;0.62;;;;;7.40;1.00;;;;;;2244117;61;1412;-88
2022/01/17 03:56:06;238257.00;0.79;411.75;0.00;0.00;0.62;;;;;7.40;1.00;;;;;;2244128;61;1078;-87
2022/01/17 03:58:33;323779.00;1.08;558.79;0.00;0.00;0.62;;;;;7.50;1.00;;;;;;2244161;61;1172;-87
2022/01/17 04:01:02;315874.00;1.05;545.21;0.00;0.00;0.62;;;;;7.70;1.00;;;;;;2244661;61;1916;-87
2022/01/17 04:03:31;381913.00;1.27;658.71;2912.00;0.01;5.67;;;;;7.70;1.00;;;;;;2244788;61;1385;-87
2022/01/17 04:05:58;273954.00;0.91;473.14;0.00;0.00;0.62;;;;;7.80;1.00;;;;;;2244807;61;1072;-88
2022/01/17 04:08:25;278919.00;0.93;481.68;0.00;0.00;0.62;;;;;8.00;1.00;;;;;;2244833;61;1108;-87
2022/01/17 04:10:52;362704.00;1.21;625.70;0.00;0.00;0.62;;;;;8.10;1.00;;;;;;2244842;61;1085;-87
2022/01/17 04:13:19;418324.00;1.39;721.31;31226.00;0.10;54.71;;;;;8.10;1.00;;;;;;2244747;61;1738;-87
2022/01/17 04:15:47;369692.00;1.23;637.71;0.00;0.00;0.62;;;;;8.20;1.00;;;;;;2244778;61;982;-87
2022/01/17 04:18:14;320547.00;1.07;553.24;0.00;0.00;0.62;;;;;8.60;1.00;;;;;;2244785;61;1103;-87
2022/01/17 04:20:43;319123.00;1.06;550.79;0.00;0.00;0.62;;;;;8.10;1.00;;;;;;2244728;61;1553;-87
2022/01/17 04:23:13;235772.00;0.79;407.48;0.00;0.00;0.62;;;;;7.80;1.00;;;;;;2244687;61;1929;-87
2022/01/17 04:25:42;311333.00;1.04;537.40;0.00;0.00;0.62;;;;;7.40;1.00;;;;;;2244727;61;1098;-88
2022/01/17 04:28:10;336553.00;1.12;580.75;0.00;0.00;0.62;;;;;7.30;1.00;;;;;;2244745;61;990;-88
2022/01/17 04:30:39;239150.00;0.80;413.29;0.00;0.00;0.62;;;;;6.70;1.00;;;;;;2244832;61;1106;-87
2022/01/17 04:33:07;413990.00;1.38;713.86;46798.00;0.16;81.65;;;;;6.50;1.00;;;;;;2244677;61;1763;-87
2022/01/17 04:35:35;296283.00;0.99;511.53;0.00;0.00;0.62;;;;;6.50;1.00;;;;;;2244699;61;919;-88
2022/01/17 04:38:05;174131.00;0.58;301.38;0.00;0.00;0.62;;;;;6.70;1.00;;;;;;2244707;61;1049;-88
2022/01/17 04:40:35;669034.00;2.23;1153.58;0.00;0.00;0.62;;;;;6.80;1.00;;;;;;2244769;61;1006;-88
2022/01/17 04:43:05;394032.00;1.31;679.55;0.00;0.00;0.62;;;;;7.10;1.00;;;;;;2244662;61;2031;-88
2022/01/17 04:45:33;261472.00;0.87;451.68;0.00;0.00;0.62;;;;;7.20;1.00;;;;;;2244720;61;1116;-88
2022/01/17 04:48:00;280271.00;0.93;484.00;0.00;0.00;0.62;;;;;7.40;1.00;;;;;;2244687;61;1159;-89
2022/01/17 04:50:29;459050.00;1.53;791.35;33982.00;0.11;59.47;;;;;7.30;1.00;;;;;;2244678;61;932;-88
2022/01/17 04:52:58;384394.00;1.28;662.98;0.00;0.00;0.62;;;;;7.50;1.00;;;;;;2244629;61;1670;-89
2022/01/17 04:55:27;268498.00;0.89;463.76;0.00;0.00;0.62;;;;;7.20;1.00;;;;;;2244645;61;1153;-88
2022/01/17 04:57:56;260215.00;0.87;449.52;0.00;0.00;0.62;;;;;7.30;1.00;;;;;;2244560;61;1120;-88
2022/01/17 05:00:24;387545.00;1.29;668.39;0.00;0.00;0.62;;;;;7.00;1.00;;;;;;2244693;61;969;-88
2022/01/17 05:02:52;403074.00;1.34;695.09;0.00;0.00;0.62;;;;;7.40;1.00;;;;;;2244563;61;1999;-88
2022/01/17 05:05:19;195807.00;0.65;338.71;0.00;0.00;0.62;;;;;7.60;1.00;;;;;;2244665;61;931;-87
2022/01/17 05:07:46;546596.00;1.82;942.09;0.00;0.00;0.62;;;;;7.70;1.00;;;;;;2244636;61;1116;-88
2022/01/17 05:10:16;173119.00;0.58;299.64;0.00;0.00;0.62;;;;;7.80;1.00;;;;;;2244643;61;1132;-88
2022/01/17 05:12:45;297197.00;0.99;513.10;0.00;0.00;0.62;;;;;8.00;1.00;;;;;;2244476;61;1302;-87
2022/01/17 05:15:24;380505.00;1.27;656.29;0.00;0.00;0.62;;;;;8.00;1.00;;;;;;2244602;61;1050;-88
2022/01/17 05:18:01;227947.00;0.76;394.02;0.00;0.00;0.62;;;;;8.10;1.00;;;;;;2244639;61;1157;-87
2022/01/17 05:20:29;127086120.00;423.62;83160880.00;39068.00;0.13;68.28;;;;;8.10;1.00;;;;;;2244635;61;1141;-87
2022/01/17 05:22:56;342290.00;1.14;590.61;0.00;0.00;0.62;;;;;8.00;1.00;;;;;;2244599;61;1924;-87
2022/01/17 05:25:23;132188.00;0.44;229.10;0.00;0.00;0.62;;;;;7.90;1.00;;;;;;2244593;61;1109;-87
2022/01/17 05:27:52;230027.00;0.77;397.60;0.00;0.00;0.62;;;;;7.60;1.00;;;;;;2244616;61;1122;-88
2022/01/17 05:30:21;184467.00;0.61;319.18;0.00;0.00;0.62;;;;;7.80;1.00;;;;;;2244523;61;1089;-88
2022/01/17 05:32:49;529025.00;1.76;911.81;0.00;0.00;0.62;;;;;7.70;1.00;;;;;;2244482;61;1364;-87
2022/01/17 05:35:16;216546.00;0.72;374.40;0.00;0.00;0.62;;;;;7.40;1.00;;;;;;2244530;61;1160;-88
2022/01/17 05:37:45;270562.00;0.90;467.31;0.00;0.00;0.62;;;;;7.60;1.00;;;;;;2244501;61;1091;-88
2022/01/17 05:40:14;238785.00;0.80;412.66;0.00;0.00;0.62;;;;;7.70;1.00;;;;;;2244567;61;1201;-88
2022/01/17 05:42:41;333185.00;1.11;574.96;10513.00;0.04;18.84;;;;;7.40;1.00;;;;;;2244492;61;1997;-88
2022/01/17 05:45:12;401516.00;1.34;692.41;0.00;0.00;0.62;;;;;6.90;1.00;;;;;;2244508;61;1057;-88
2022/01/17 05:47:40;273718.00;0.91;472.74;0.00;0.00;0.62;;;;;6.50;1.00;;;;;;2244451;61;1055;-88
2022/01/17 05:52:39;308466.00;1.03;532.47;0.00;0.00;0.62;;;;;6.50;1.00;;;;;;2249834;61;1404;-88
2022/01/17 05:55:09;248675.00;0.83;429.67;0.00;0.00;0.62;;;;;6.80;1.00;;;;;;2248488;61;1023;-88
2022/01/17 05:57:36;517221.00;1.72;891.48;0.00;0.00;0.62;;;;;6.70;1.00;;;;;;2248380;61;908;-89
2022/01/17 06:00:05;361333.00;1.20;623.34;0.00;0.00;0.62;;;;;6.60;1.00;;;;;;2248415;61;1113;-89
2022/01/17 06:02:33;605929.00;2.02;1044.46;0.00;0.00;0.62;;;;;6.60;1.00;;;;;;2248328;61;1916;-89
2022/01/17 06:05:01;235700.00;0.79;407.35;0.00;0.00;0.62;;;;;6.90;1.00;;;;;;2248400;61;1170;-89
2022/01/17 06:07:27;465812.00;1.55;802.98;0.00;0.00;0.62;;;;;7.20;1.00;;;;;;2248383;61;1601;-88
2022/01/17 06:09:54;337720.00;1.13;582.75;0.00;0.00;0.62;;;;;7.00;1.00;;;;;;2248210;61;1753;-87
2022/01/17 06:12:22;354627.00;1.18;611.81;0.00;0.00;0.62;;;;;7.00;1.00;;;;;;2248323;61;1405;-87
2022/01/17 06:14:49;573118.00;1.91;987.83;2909.00;0.01;5.66;;;;;6.80;1.00;;;;;;2248244;61;1155;-87
2022/01/17 06:17:16;404054.00;1.35;696.77;0.00;0.00;0.62;;;;;6.70;1.00;;;;;;2248365;61;1067;-88
2022/01/17 06:19:44;232195.00;0.77;401.32;0.00;0.00;0.62;;;;;6.90;1.00;;;;;;2248328;61;1115;-87
2022/01/17 06:22:15;472133.00;1.57;813.86;26180.00;0.09;45.97;;;;;6.90;1.00;;;;;;2248277;61;1999;-87
2022/01/17 06:24:42;286915.00;0.96;495.43;0.00;0.00;0.62;;;;;7.00;1.00;;;;;;2248233;61;1322;-87
2022/01/17 06:34:39;549918.00;1.83;947.82;0.00;0.00;0.62;;;;;6.80;1.00;;;;;;2253844;61;1397;-87
2022/01/17 06:37:07;746372.00;2.49;1287.75;87932.00;0.29;152.74;;;;;6.70;1.00;;;;;;2252295;61;1145;-89
2022/01/17 06:39:34;330222.00;1.10;569.87;0.00;0.00;0.62;;;;;6.60;1.00;;;;;;2252205;61;1782;-88
2022/01/17 06:44:29;271583.00;0.91;469.07;0.00;0.00;0.62;;;;;6.60;1.00;;;;;;2254162;61;1399;-88
2022/01/17 06:46:56;299511.00;1.00;517.08;0.00;0.00;0.62;;;;;6.60;1.00;;;;;;2252172;61;1041;-88
2022/01/17 06:51:56;289406.00;0.96;499.71;0.00;0.00;0.62;;;;;7.20;1.00;;;;;;2249593;61;1403;-88
2022/01/17 06:54:24;162883.00;0.54;282.01;0.00;0.00;0.62;;;;;7.20;1.00;;;;;;2244246;61;1066;-89
2022/01/17 06:56:52;452178.00;1.51;779.53;0.00;0.00;0.62;;;;;7.10;1.00;;;;;;2244322;61;1295;-88
2022/01/17 06:59:18;582041.00;1.94;1003.22;80323.00;0.27;139.60;;;;;7.30;1.00;;;;;;2244159;61;1123;-88
2022/01/17 07:01:45;378021.00;1.26;652.02;0.00;0.00;0.62;;;;;7.10;1.00;;;;;;2244180;61;1517;-88
2022/01/17 07:06:41;714535.00;2.38;1232.45;0.00;0.00;0.62;;;;;6.80;1.00;;;;;;2250141;61;1431;-89
2022/01/17 07:19:04;277371.00;0.92;479.02;0.00;0.00;0.62;;;;;7.50;1.00;;;;;;2249417;61;1442;-87
2022/01/17 07:21:32;287516.00;0.96;496.46;0.00;0.00;0.62;;;;;7.60;1.00;;;;;;2248109;61;1163;-87
2022/01/17 07:23:59;390804.00;1.30;674.00;0.00;0.00;0.62;;;;;7.60;1.00;;;;;;2248044;61;1940;-88
2022/01/17 07:26:27;245416.00;0.82;424.07;0.00;0.00;0.62;;;;;7.60;1.00;;;;;;2247960;61;963;-89
2022/01/17 07:28:54;220741.00;0.74;381.62;0.00;0.00;0.62;;;;;7.50;1.00;;;;;;2248115;61;1199;-88
2022/01/17 07:31:21;391002.00;1.30;674.34;0.00;0.00;0.62;;;;;7.40;1.00;;;;;;2248121;61;1311;-88
2022/01/17 07:33:48;414801.00;1.38;715.25;0.00;0.00;0.62;;;;;7.50;1.00;;;;;;2248144;61;1290;-87
2022/01/17 07:36:20;438764.00;1.46;756.46;36020.00;0.12;63.00;;;;;7.70;1.00;;;;;;2248692;61;1482;-88
2022/01/17 07:38:48;172480.00;0.57;298.54;0.00;0.00;0.62;;;;;8.10;1.00;;;;;;2248980;61;1646;-88
2022/01/17 07:41:15;286605.00;0.96;494.89;0.00;0.00;0.62;;;;;7.90;1.00;;;;;;2248772;61;980;-88
2022/01/17 07:43:42;388693.00;1.30;670.37;0.00;0.00;0.62;;;;;7.40;1.00;;;;;;2248809;61;2018;-88
2022/01/17 07:46:19;527751.00;1.76;909.62;0.00;0.00;0.62;;;;;7.50;1.00;;;;;;2248745;61;1259;-88
2022/01/17 07:49:03;339523.00;1.13;585.85;0.00;0.00;0.62;;;;;7.70;1.00;;;;;;2248723;61;1134;-88
2022/01/17 07:51:31;301808.00;1.01;521.03;0.00;0.00;0.62;;;;;7.30;1.00;;;;;;2248826;61;1164;-87
2022/01/17 07:53:59;368021.00;1.23;634.84;0.00;0.00;0.62;;;;;7.00;1.00;;;;;;2248714;61;1281;-87
2022/01/17 07:56:26;118031784.00;393.44;66608808.00;0.00;0.00;0.62;;;;;6.90;1.00;;;;;;2248814;61;1178;-87
2022/01/17 07:58:54;278713.00;0.93;481.32;0.00;0.00;0.62;;;;;7.10;1.00;;;;;;2248859;61;1138;-87
2022/01/17 08:01:21;404786.00;1.35;698.03;23861.00;0.08;41.96;;;;;7.30;1.00;;;;;;2248785;61;1577;-86
2022/01/17 08:03:48;368382.00;1.23;635.46;0.00;0.00;0.62;;;;;7.10;1.00;;;;;;2248503;61;2021;-87
2022/01/17 08:06:15;255525.00;0.85;441.45;0.00;0.00;0.62;;;;;7.20;1.00;;;;;;2248722;61;1636;-86
2022/01/17 08:08:43;301418.00;1.00;520.36;0.00;0.00;0.62;;;;;6.90;1.00;;;;;;2248812;61;1066;-87
2022/01/17 08:11:10;315319.00;1.05;544.25;0.00;0.00;0.62;;;;;6.80;1.00;;;;;;2248603;61;1161;-87
2022/01/17 08:13:37;409122.00;1.36;705.49;0.00;0.00;0.62;;;;;7.50;1.00;;;;;;2248644;61;1392;-87
2022/01/17 08:16:04;450955.00;1.50;777.43;0.00;0.00;0.62;;;;;7.70;1.00;;;;;;2248656;61;951;-87
2022/01/17 08:18:31;315001.00;1.05;543.71;0.00;0.00;0.62;;;;;7.60;1.00;;;;;;2248691;61;1231;-86
2022/01/17 08:20:59;325432.00;1.08;561.63;0.00;0.00;0.62;;;;;8.00;1.00;;;;;;2248655;61;1077;-86
2022/01/17 08:23:26;398148.00;1.33;686.62;0.00;0.00;0.62;;;;;8.10;1.00;;;;;;2248428;61;1924;-87
2022/01/17 08:25:55;341528.00;1.14;589.30;0.00;0.00;0.62;;;;;8.30;1.00;;;;;;2248792;61;1077;-89
2022/01/17 08:28:22;420102.00;1.40;724.37;36818.00;0.12;64.38;;;;;8.50;1.00;;;;;;2248764;61;1149;-88
2022/01/17 08:30:49;167963.00;0.56;290.76;0.00;0.00;0.62;;;;;8.60;1.00;;;;;;2248624;61;990;-88
2022/01/17 08:33:16;378372.00;1.26;652.63;0.00;0.00;0.62;;;;;9.10;1.00;;;;;;2248578;61;1826;-88
2022/01/17 08:35:44;722009.00;2.41;1245.43;73464.00;0.24;127.75;;;;;9.20;1.00;;;;;;2248699;61;1051;-88
2022/01/17 08:38:11;528252.00;1.76;910.48;0.00;0.00;0.62;;;;;8.60;1.00;;;;;;2248660;61;1778;-88
2022/01/17 08:45:42;298725.00;1.00;515.73;26802.00;0.09;47.05;;;;;7.40;1.00;;;;;;2254103;61;1281;-89
2022/01/17 08:48:10;258891.00;0.86;447.24;0.00;0.00;0.62;;;;;7.60;1.00;;;;;;2252625;61;1072;-89
2022/01/17 08:50:37;200908.00;0.67;347.49;0.00;0.00;0.62;;;;;7.80;1.00;;;;;;2252612;61;1848;-90
2022/01/17 08:53:05;306846.00;1.02;529.69;0.00;0.00;0.62;;;;;7.80;1.00;;;;;;2252608;61;1724;-89
2022/01/17 08:55:32;280857.00;0.94;485.01;0.00;0.00;0.62;;;;;8.30;1.00;;;;;;2252623;61;1709;-88
2022/01/17 09:13:18;292892.00;0.98;505.70;0.00;0.00;0.62;;;;;7.80;1.00;;;;;;2250474;61;1302;-87
2022/01/17 09:18:19;413733.00;1.38;713.42;0.00;0.00;0.62;;;;;8.00;1.00;;;;;;2250156;61;1443;-88
2022/01/17 09:20:46;304715.00;1.02;526.02;0.00;0.00;0.62;;;;;8.70;1.00;;;;;;2248597;61;1128;-87
2022/01/17 09:23:13;357678.00;1.19;617.06;0.00;0.00;0.62;;;;;8.40;1.00;;;;;;2248480;61;1923;-89
2022/01/17 09:25:40;364599.00;1.22;628.95;0.00;0.00;0.62;;;;;8.50;1.00;;;;;;2248608;61;977;-89
2022/01/17 09:28:07;243328.00;0.81;420.48;0.00;0.00;0.62;;;;;8.50;1.00;;;;;;2248591;61;992;-89
2022/01/17 09:30:36;278579.00;0.93;481.09;0.00;0.00;0.62;;;;;8.50;1.00;;;;;;2248578;61;1132;-90
2022/01/17 09:33:05;254994.00;0.85;440.54;0.00;0.00;0.62;;;;;8.50;1.00;;;;;;2248558;61;1381;-88
2022/01/17 09:35:34;317637.00;1.06;548.24;0.00;0.00;0.62;;;;;8.70;1.00;;;;;;2248366;61;1546;-88
2022/01/17 09:38:01;301586.00;1.01;520.65;0.00;0.00;0.62;;;;;8.90;1.00;;;;;;2248504;61;1112;-88
2022/01/17 09:40:28;330252.00;1.10;569.92;0.00;0.00;0.62;;;;;9.00;1.00;;;;;;2248561;61;1121;-89
2022/01/17 09:42:58;285417.00;0.95;492.85;0.00;0.00;0.62;;;;;9.10;1.00;;;;;;2248556;61;1919;-88
2022/01/17 09:45:25;217455.00;0.72;375.96;0.00;0.00;0.62;;;;;8.80;1.00;;;;;;2248484;61;1071;-89
2022/01/17 09:47:53;220640.00;0.74;381.44;0.00;0.00;0.62;;;;;8.60;1.00;;;;;;2248516;61;1109;-89
2022/01/17 09:50:31;310208.00;1.03;535.47;0.00;0.00;0.62;;;;;8.50;1.00;;;;;;2248517;61;1069;-88
2022/01/17 09:53:00;188499.00;0.63;326.12;0.00;0.00;0.62;;;;;8.30;1.00;;;;;;2248548;61;1479;-89
2022/01/17 09:55:30;275082.00;0.92;475.08;0.00;0.00;0.62;;;;;8.80;1.00;;;;;;2241606;61;944;-89
2022/01/17 09:58:02;193766.00;0.65;335.19;0.00;0.00;0.62;;;;;8.50;1.00;;;;;;2248484;61;993;-89
2022/01/17 10:00:33;208946.00;0.70;361.32;0.00;0.00;0.62;;;;;8.60;1.00;;;;;;2248544;61;1136;-88
2022/01/17 10:03:08;375589.00;1.25;647.84;0.00;0.00;0.62;;;;;8.90;1.00;;;;;;2248497;61;1999;-89
2022/01/17 10:05:37;402485.00;1.34;694.08;15607.00;0.05;27.66;;;;;8.50;1.00;;;;;;2248513;61;1120;-88
2022/01/17 10:08:05;324741.00;1.08;560.45;0.00;0.00;0.62;;;;;9.00;1.00;;;;;;2248418;61;1746;-88
2022/01/17 10:10:43;303058.00;1.01;523.18;0.00;0.00;0.62;;;;;9.20;1.00;;;;;;2248485;61;916;-88
2022/01/17 10:13:13;494014.00;1.65;851.52;0.00;0.00;0.62;;;;;9.60;1.00;;;;;;2248414;61;1474;-88
2022/01/17 10:15:48;784380.00;2.61;1353.90;62730.00;0.21;109.20;;;;;9.60;1.00;;;;;;2248452;61;991;-88
2022/01/17 10:18:29;1062289.00;3.54;1843.11;23123.00;0.08;40.68;;;;;9.50;1.00;;;;;;2248359;61;1145;-88
2022/01/17 10:21:01;823351.00;2.74;1421.88;47503.00;0.16;82.87;;;;;9.30;1.00;;;;;;2248402;61;1100;-89
2022/01/17 10:23:46;1122435.00;3.74;1950.59;89193.00;0.30;154.91;;;;;9.10;1.00;;;;;;2248351;61;2003;-89
2022/01/17 10:26:29;326471.00;1.09;563.42;0.00;0.00;0.62;;;;;8.80;1.00;;;;;;2248402;61;1371;-89
2022/01/17 10:34:56;323194.00;1.08;557.79;0.00;0.00;0.62;;;;;9.00;1.00;;;;;;2248429;61;805;-89
2022/01/17 10:37:25;267980.00;0.89;462.87;0.00;0.00;0.62;;;;;8.70;1.00;;;;;;2248288;61;1049;-89
2022/01/17 10:39:59;376723.00;1.26;649.79;0.00;0.00;0.62;;;;;9.20;1.00;;;;;;2248319;61;1664;-88
2022/01/17 10:42:29;268354.00;0.89;463.51;0.00;0.00;0.62;;;;;9.50;1.00;;;;;;2248295;61;1486;-88
2022/01/17 10:45:06;526677.00;1.76;907.77;47852.00;0.16;83.47;;;;;9.40;1.00;;;;;;2248344;61;1919;-89
2022/01/17 10:47:35;347992.00;1.16;600.41;0.00;0.00;0.62;;;;;9.10;1.00;;;;;;2248333;61;930;-89
2022/01/17 10:50:07;355248.00;1.18;612.88;7796.00;0.03;14.13;;;;;9.40;1.00;;;;;;2248361;61;1249;-88
2022/01/17 10:52:36;438182.00;1.46;755.46;155.00;0.00;0.89;;;;;9.20;1.00;;;;;;2248249;61;1417;-88
2022/01/17 10:55:08;496227.00;1.65;855.33;36214.00;0.12;63.34;;;;;9.00;1.00;;;;;;2248361;61;1003;-89
2022/01/17 10:57:36;122483576.00;408.28;74441072.00;55770.00;0.19;97.16;;;;;9.00;1.00;;;;;;2248314;61;1036;-89
2022/01/17 11:00:08;967156.00;3.22;1674.39;113695.00;0.38;197.21;;;;;8.70;1.00;;;;;;2248328;61;1151;-89
2022/01/17 11:02:36;713223.00;2.38;1230.18;47971.00;0.16;83.68;;;;;8.80;1.00;;;;;;2248356;61;1390;-89
2022/01/17 11:05:07;1083453.00;3.61;1880.86;120671.00;0.40;209.24;;;;;9.00;1.00;;;;;;2248216;61;2011;-89
2022/01/17 11:07:40;619292.00;2.06;1067.54;94411.00;0.31;163.92;;;;;9.10;1.00;;;;;;2248344;61;1014;-89
2022/01/17 11:10:18;917777.00;3.06;1587.36;42747.00;0.14;74.64;;;;;9.10;1.00;;;;;;2248160;61;1127;-88